Time;durP1;ratioP1;P1;durP2;ratioP2;P2;SDS_P1;SDS_P2;PMS_P1;PMS_P2;Temp;Humidity;BMP_temperature;BMP_pressure;BME280_temperature;BME280_humidity;BME280_pressure;Samples;Min_cycle;Max_cycle;Signal;HPM_P1;HPM_P2
2021/07/16 00:01:44;;;;;;;2.13;0.73;;;;;;;;;;4994229;28;20122;-75
2021/07/16 00:04:09;;;;;;;1.20;0.60;;;;;;;;;;4978102;28;20030;-75
2021/07/16 00:06:35;;;;;;;1.60;0.60;;;;;;;;;;4949484;28;20519;-74
2021/07/16 00:09:00;;;;;;;2.05;0.63;;;;;;;;;;4994135;28;20045;-74
2021/07/16 00:11:27;;;;;;;2.83;1.03;;;;;;;;;;4994513;28;20516;-74
2021/07/16 00:13:52;;;;;;;3.53;1.00;;;;;;;;;;4993972;28;20018;-74
2021/07/16 00:16:18;;;;;;;1.77;0.70;;;;;;;;;;4993817;28;20031;-74
2021/07/16 00:18:43;;;;;;;1.60;0.53;;;;;;;;;;5009919;28;20497;-74
2021/07/16 00:21:08;;;;;;;2.50;0.70;;;;;;;;;;4993900;28;20061;-74
2021/07/16 00:23:34;;;;;;;2.10;0.80;;;;;;;;;;4993773;28;20452;-74
2021/07/16 00:25:59;;;;;;;2.77;0.80;;;;;;;;;;4961703;28;20038;-74
2021/07/16 00:28:24;;;;;;;2.77;1.00;;;;;;;;;;5010013;28;20525;-75
2021/07/16 00:30:50;;;;;;;2.07;0.70;;;;;;;;;;4993655;28;20104;-74
2021/07/16 00:33:15;;;;;;;1.93;0.70;;;;;;;;;;4975949;28;20069;-75
2021/07/16 00:35:41;;;;;;;2.80;0.87;;;;;;;;;;4978155;28;20274;-75
2021/07/16 00:38:06;;;;;;;3.30;0.90;;;;;;;;;;4976602;28;20061;-74
2021/07/16 00:40:31;;;;;;;2.60;0.80;;;;;;;;;;4977329;28;20050;-74
2021/07/16 00:42:57;;;;;;;1.87;0.80;;;;;;;;;;4976343;28;20069;-74
2021/07/16 00:45:23;;;;;;;2.37;0.70;;;;;;;;;;4992884;28;20128;-74
2021/07/16 00:47:49;;;;;;;3.58;0.70;;;;;;;;;;4992645;28;20477;-74
2021/07/16 00:50:18;;;;;;;1.80;0.70;;;;;;;;;;4993014;28;20026;-74
2021/07/16 00:52:44;;;;;;;1.55;0.68;;;;;;;;;;5009289;28;20068;-74
2021/07/16 00:55:09;;;;;;;2.73;0.90;;;;;;;;;;4992756;28;20101;-74
2021/07/16 00:57:35;;;;;;;1.77;0.70;;;;;;;;;;4993244;28;20509;-74
2021/07/16 01:00:01;;;;;;;2.15;0.90;;;;;;;;;;4993026;28;20030;-75
2021/07/16 01:02:26;;;;;;;2.97;1.00;;;;;;;;;;4989480;28;20121;-76
2021/07/16 01:04:52;;;;;;;1.93;0.80;;;;;;;;;;4962731;28;20479;-75
2021/07/16 01:07:17;;;;;;;1.77;0.70;;;;;;;;;;4989434;28;20038;-75
2021/07/16 01:09:43;;;;;;;1.90;0.67;;;;;;;;;;4973024;28;20060;-76
2021/07/16 01:12:08;;;;;;;3.53;0.90;;;;;;;;;;4989611;28;20045;-76
2021/07/16 01:14:33;;;;;;;1.43;0.60;;;;;;;;;;4972860;28;20405;-76
2021/07/16 01:16:59;;;;;;;2.63;0.70;;;;;;;;;;4956688;28;20129;-75
2021/07/16 01:20:00;;;;;;;2.20;0.60;;;;;;;;;;4989207;28;20033;-76
2021/07/16 01:22:30;;;;;;;2.05;0.70;;;;;;;;;;4976237;28;20038;-73
2021/07/16 01:24:56;;;;;;;2.63;0.90;;;;;;;;;;4989098;28;20493;-74
2021/07/16 01:27:21;;;;;;;3.22;0.70;;;;;;;;;;4989001;28;20061;-74
2021/07/16 01:29:47;;;;;;;2.87;0.87;;;;;;;;;;4979784;28;20130;-74
2021/07/16 01:32:14;;;;;;;3.28;1.00;;;;;;;;;;4987609;28;20034;-74
2021/07/16 01:34:41;;;;;;;2.15;0.90;;;;;;;;;;4988920;28;20037;-74
2021/07/16 01:37:06;;;;;;;3.17;0.88;;;;;;;;;;4974401;28;20473;-75
2021/07/16 01:39:31;;;;;;;3.00;1.00;;;;;;;;;;4976171;28;20042;-75
2021/07/16 01:41:57;;;;;;;1.47;0.63;;;;;;;;;;4992027;28;20046;-74
2021/07/16 01:44:22;;;;;;;1.40;0.75;;;;;;;;;;4992715;28;20493;-75
2021/07/16 01:46:48;;;;;;;2.20;0.80;;;;;;;;;;4991869;28;20042;-74
2021/07/16 01:49:13;;;;;;;2.27;0.70;;;;;;;;;;4992296;28;20058;-75
2021/07/16 01:51:38;;;;;;;2.90;1.00;;;;;;;;;;4991946;28;20049;-75
2021/07/16 01:54:04;;;;;;;1.40;0.60;;;;;;;;;;4992007;28;20469;-75
2021/07/16 01:56:29;;;;;;;2.90;0.77;;;;;;;;;;4992160;28;20132;-75
2021/07/16 01:58:54;;;;;;;2.03;0.70;;;;;;;;;;4976494;28;20066;-75
2021/07/16 02:01:24;;;;;;;3.17;0.70;;;;;;;;;;4991725;28;20058;-74
2021/07/16 02:03:49;;;;;;;1.55;0.60;;;;;;;;;;4992215;28;20030;-75
2021/07/16 02:06:14;;;;;;;2.67;0.80;;;;;;;;;;4976033;28;20026;-75
2021/07/16 02:08:40;;;;;;;2.23;0.60;;;;;;;;;;4992121;28;20134;-75
2021/07/16 02:11:06;;;;;;;2.75;0.80;;;;;;;;;;5008632;28;20062;-75
2021/07/16 02:13:31;;;;;;;1.47;0.57;;;;;;;;;;4992163;28;20121;-75
2021/07/16 02:15:56;;;;;;;2.00;0.77;;;;;;;;;;4992022;28;20520;-75
2021/07/16 02:18:22;;;;;;;1.97;0.80;;;;;;;;;;4992043;28;20516;-75
2021/07/16 02:20:47;;;;;;;2.33;0.87;;;;;;;;;;4990753;28;20397;-74
2021/07/16 02:23:18;;;;;;;3.00;0.80;;;;;;;;;;4976994;28;20053;-75
2021/07/16 02:25:44;;;;;;;2.00;0.68;;;;;;;;;;4991829;28;20118;-74
2021/07/16 02:28:20;;;;;;;1.33;0.53;;;;;;;;;;4976058;28;20026;-75
2021/07/16 02:30:45;;;;;;;2.03;0.80;;;;;;;;;;4991732;28;20030;-75
2021/07/16 02:33:11;;;;;;;2.30;0.80;;;;;;;;;;4983387;28;20752;-74
2021/07/16 02:35:36;;;;;;;1.97;0.70;;;;;;;;;;4991498;28;20034;-74
2021/07/16 02:38:02;;;;;;;2.70;0.90;;;;;;;;;;4991724;28;20033;-75
2021/07/16 02:40:30;;;;;;;;;;;;;;;;;;4992524;28;20030;-74
2021/07/16 02:42:55;;;;;;;2.22;0.75;;;;;;;;;;5004161;28;19918;-75
2021/07/16 02:45:21;;;;;;;2.90;0.80;;;;;;;;;;4991866;28;20528;-74
2021/07/16 02:47:48;;;;;;;2.22;0.73;;;;;;;;;;4974427;28;20045;-74
2021/07/16 02:50:14;;;;;;;;;;;;;;;;;;4992291;28;20100;-75
2021/07/16 02:52:41;;;;;;;3.17;0.70;;;;;;;;;;5007683;28;19917;-75
2021/07/16 02:55:06;;;;;;;3.60;0.70;;;;;;;;;;5007871;28;20505;-74
2021/07/16 02:57:32;;;;;;;2.00;0.77;;;;;;;;;;4993874;28;20069;-75
2021/07/16 02:59:57;;;;;;;4.33;0.80;;;;;;;;;;4995622;28;20097;-74
2021/07/16 03:02:28;;;;;;;2.37;0.73;;;;;;;;;;4995595;28;20018;-75
2021/07/16 03:04:54;;;;;;;2.40;0.88;;;;;;;;;;4995713;28;20022;-75
2021/07/16 03:07:20;;;;;;;3.03;0.93;;;;;;;;;;4978824;28;20038;-74
2021/07/16 03:09:45;;;;;;;3.03;0.63;;;;;;;;;;4996872;28;20548;-76
2021/07/16 03:12:10;;;;;;;3.13;0.90;;;;;;;;;;5011694;28;20057;-74
2021/07/16 03:14:36;;;;;;;1.90;0.77;;;;;;;;;;4994863;28;20060;-75
2021/07/16 03:17:01;;;;;;;2.73;0.90;;;;;;;;;;4978193;28;20061;-75
2021/07/16 03:19:26;;;;;;;2.10;0.70;;;;;;;;;;4979806;28;20113;-74
2021/07/16 03:21:52;;;;;;;3.23;1.00;;;;;;;;;;4995118;28;20061;-75
2021/07/16 03:24:18;;;;;;;3.00;0.90;;;;;;;;;;4988905;28;20062;-74
2021/07/16 03:26:43;;;;;;;3.00;0.73;;;;;;;;;;4985412;28;20089;-75
2021/07/16 03:29:08;;;;;;;5.17;0.80;;;;;;;;;;4978926;28;20437;-74
2021/07/16 03:31:34;;;;;;;2.63;0.93;;;;;;;;;;4962446;28;20066;-75
2021/07/16 03:33:59;;;;;;;3.07;0.90;;;;;;;;;;4978364;28;20366;-75
2021/07/16 03:36:24;;;;;;;1.97;0.70;;;;;;;;;;4977997;28;20049;-74
2021/07/16 03:38:52;;;;;;;2.47;0.83;;;;;;;;;;4994625;28;20076;-75
2021/07/16 03:41:18;;;;;;;2.53;0.90;;;;;;;;;;4994577;28;20117;-75
2021/07/16 03:43:46;;;;;;;3.42;1.00;;;;;;;;;;4994812;28;20489;-75
2021/07/16 03:46:11;;;;;;;3.45;1.13;;;;;;;;;;4994517;28;20469;-76
2021/07/16 03:48:37;;;;;;;3.67;1.20;;;;;;;;;;4994602;28;20058;-75
2021/07/16 03:51:02;;;;;;;3.10;1.07;;;;;;;;;;4994524;28;20058;-76
2021/07/16 03:53:28;;;;;;;2.83;1.10;;;;;;;;;;4978469;28;20104;-76
2021/07/16 03:55:53;;;;;;;1.83;0.90;;;;;;;;;;5011071;28;20057;-76
2021/07/16 03:58:18;;;;;;;1.53;0.73;;;;;;;;;;5010928;28;20113;-76
2021/07/16 04:00:44;;;;;;;1.67;0.67;;;;;;;;;;4994459;28;20064;-76
2021/07/16 04:03:09;;;;;;;1.33;0.60;;;;;;;;;;4994672;28;20069;-76
2021/07/16 04:05:35;;;;;;;1.17;0.60;;;;;;;;;;5010792;28;20061;-76
2021/07/16 04:08:04;;;;;;;1.65;0.68;;;;;;;;;;4978099;28;20508;-76
2021/07/16 04:10:31;;;;;;;1.05;0.63;;;;;;;;;;5009496;28;20022;-76
2021/07/16 04:12:58;;;;;;;1.42;0.63;;;;;;;;;;4994245;28;20022;-76
2021/07/16 04:15:26;;;;;;;1.95;0.68;;;;;;;;;;4994395;28;20039;-76
2021/07/16 04:17:55;;;;;;;1.00;0.57;;;;;;;;;;4978255;28;20030;-77
2021/07/16 04:20:21;;;;;;;1.80;0.52;;;;;;;;;;4978546;28;20029;-76
2021/07/16 04:22:46;;;;;;;1.00;0.53;;;;;;;;;;4993987;28;20030;-76
2021/07/16 04:25:19;;;;;;;1.27;0.60;;;;;;;;;;4977651;28;20110;-76
2021/07/16 04:27:46;;;;;;;1.48;0.60;;;;;;;;;;4979087;28;20082;-75
2021/07/16 04:30:11;;;;;;;;;;;;;;;;;;4962157;28;20026;-76
2021/07/16 04:32:37;;;;;;;1.40;0.60;;;;;;;;;;4977739;28;19916;-76
2021/07/16 04:35:03;;;;;;;1.30;0.50;;;;;;;;;;4961645;28;20026;-76
2021/07/16 04:37:28;;;;;;;1.10;0.63;;;;;;;;;;4977645;28;20034;-76
2021/07/16 04:39:54;;;;;;;2.07;0.57;;;;;;;;;;4994073;28;20108;-76
2021/07/16 04:42:21;;;;;;;0.80;0.50;;;;;;;;;;4977397;28;20046;-75
2021/07/16 04:44:47;;;;;;;0.80;0.40;;;;;;;;;;4993541;28;20023;-75
2021/07/16 04:47:12;;;;;;;1.43;0.50;;;;;;;;;;4993748;28;20375;-76
2021/07/16 04:49:37;;;;;;;1.97;0.60;;;;;;;;;;4993116;28;20033;-76
2021/07/16 04:52:03;;;;;;;1.10;0.50;;;;;;;;;;4993467;28;20084;-76
2021/07/16 04:54:28;;;;;;;0.77;0.50;;;;;;;;;;4993566;28;20014;-75
2021/07/16 04:56:54;;;;;;;1.63;0.53;;;;;;;;;;4961198;28;20023;-76
2021/07/16 04:59:19;;;;;;;1.40;0.70;;;;;;;;;;4977370;28;20048;-76
2021/07/16 05:01:45;;;;;;;1.20;0.67;;;;;;;;;;4977121;28;20273;-76
2021/07/16 05:04:19;;;;;;;1.90;0.80;;;;;;;;;;4977087;28;20501;-75
2021/07/16 05:07:05;;;;;;;2.20;1.10;;;;;;;;;;4977230;28;20502;-75
2021/07/16 05:19:06;;;;;;;2.25;0.90;;;;;;;;;;4936183;29;20098;-75
2021/07/16 05:21:43;;;;;;;1.58;0.88;;;;;;;;;;4970207;28;20123;-75
2021/07/16 05:24:08;;;;;;;1.73;0.70;;;;;;;;;;4989574;28;20482;-75
2021/07/16 05:26:34;;;;;;;1.23;0.70;;;;;;;;;;4976793;28;20080;-76
2021/07/16 05:28:59;;;;;;;1.83;0.70;;;;;;;;;;4976377;28;20030;-75
2021/07/16 05:31:24;;;;;;;1.67;0.80;;;;;;;;;;4976153;28;20058;-76
2021/07/16 05:33:54;;;;;;;2.73;0.70;;;;;;;;;;4991867;28;20062;-77
2021/07/16 05:36:20;;;;;;;2.20;0.73;;;;;;;;;;4992706;28;20061;-75
2021/07/16 05:38:45;;;;;;;1.87;0.80;;;;;;;;;;4978084;28;20520;-76
2021/07/16 05:41:11;;;;;;;1.60;0.80;;;;;;;;;;4976535;28;20493;-76
2021/07/16 05:43:36;;;;;;;2.57;0.97;;;;;;;;;;4992563;28;20449;-76
2021/07/16 05:46:02;;;;;;;1.67;0.70;;;;;;;;;;4992802;28;20057;-75
2021/07/16 05:48:28;;;;;;;2.00;1.00;;;;;;;;;;4976658;28;20397;-76
2021/07/16 05:50:53;;;;;;;2.78;0.90;;;;;;;;;;4992695;28;20034;-76
2021/07/16 05:53:18;;;;;;;2.27;0.80;;;;;;;;;;4992782;28;20034;-75
2021/07/16 05:55:44;;;;;;;4.07;0.80;;;;;;;;;;4992526;28;20113;-75
2021/07/16 05:58:09;;;;;;;2.93;0.90;;;;;;;;;;4992610;28;20049;-75
2021/07/16 06:00:35;;;;;;;1.70;0.70;;;;;;;;;;4976335;28;20022;-76
2021/07/16 06:03:01;;;;;;;2.40;1.00;;;;;;;;;;4976573;28;20028;-76
2021/07/16 06:05:26;;;;;;;1.63;0.80;;;;;;;;;;4976383;28;20030;-75
2021/07/16 06:07:52;;;;;;;1.60;0.70;;;;;;;;;;4992033;28;20041;-76
2021/07/16 06:10:17;;;;;;;2.43;0.80;;;;;;;;;;4975601;28;20026;-75
2021/07/16 06:12:43;;;;;;;2.60;1.00;;;;;;;;;;4991889;28;20044;-75
2021/07/16 06:15:08;;;;;;;3.60;1.20;;;;;;;;;;4992013;28;20038;-76
2021/07/16 06:17:34;;;;;;;2.90;1.00;;;;;;;;;;4975454;28;20312;-75
2021/07/16 06:19:59;;;;;;;2.93;1.07;;;;;;;;;;4992002;28;20026;-75
2021/07/16 06:22:25;;;;;;;3.00;1.40;;;;;;;;;;4976051;28;20115;-76
2021/07/16 06:24:50;;;;;;;3.63;1.37;;;;;;;;;;4959954;28;20022;-76
2021/07/16 06:27:15;;;;;;;1.93;1.00;;;;;;;;;;4976214;28;20036;-76
2021/07/16 06:29:41;;;;;;;3.23;1.20;;;;;;;;;;4991380;28;21389;-76
2021/07/16 06:32:06;;;;;;;3.47;1.30;;;;;;;;;;4992594;28;20057;-76
2021/07/16 06:34:32;;;;;;;3.83;1.17;;;;;;;;;;4995845;28;20022;-76
2021/07/16 06:36:57;;;;;;;6.00;2.10;;;;;;;;;;5012617;28;20050;-76
2021/07/16 06:39:22;;;;;;;6.50;2.20;;;;;;;;;;4995884;28;20037;-75
2021/07/16 06:41:48;;;;;;;4.33;2.00;;;;;;;;;;4973081;28;20031;-76
2021/07/16 06:44:14;;;;;;;4.53;1.70;;;;;;;;;;4984413;28;20485;-76
2021/07/16 06:46:39;;;;;;;6.80;2.50;;;;;;;;;;4995679;28;20583;-76
2021/07/16 06:49:05;;;;;;;5.00;2.57;;;;;;;;;;4995155;28;20018;-76
2021/07/16 06:51:33;;;;;;;5.23;2.50;;;;;;;;;;5012257;28;20118;-76
2021/07/16 06:53:59;;;;;;;4.93;2.47;;;;;;;;;;5011467;28;20018;-76
2021/07/16 06:56:24;;;;;;;4.80;2.45;;;;;;;;;;4993605;28;20025;-77
2021/07/16 06:58:52;;;;;;;4.10;2.17;;;;;;;;;;4961472;28;20069;-77
2021/07/16 07:01:17;;;;;;;5.53;2.33;;;;;;;;;;4962036;28;20029;-75
2021/07/16 07:03:43;;;;;;;3.55;1.90;;;;;;;;;;4993979;28;20022;-75
2021/07/16 07:06:08;;;;;;;3.77;2.17;;;;;;;;;;5010171;28;20068;-76
2021/07/16 07:08:33;;;;;;;4.43;1.87;;;;;;;;;;4993277;28;20085;-75
2021/07/16 07:10:59;;;;;;;4.10;1.90;;;;;;;;;;4993549;28;20061;-75
2021/07/16 07:13:24;;;;;;;4.77;1.77;;;;;;;;;;4977570;28;20046;-75
2021/07/16 07:15:49;;;;;;;3.47;1.83;;;;;;;;;;4977280;28;20074;-76
2021/07/16 07:18:15;;;;;;;3.40;1.77;;;;;;;;;;5010016;28;20053;-76
2021/07/16 07:20:40;;;;;;;6.33;2.30;;;;;;;;;;4993113;28;20037;-77
2021/07/16 07:23:05;;;;;;;4.33;2.30;;;;;;;;;;4993332;28;20058;-76
2021/07/16 07:25:31;;;;;;;3.97;1.90;;;;;;;;;;4994661;28;20067;-77
2021/07/16 07:27:57;;;;;;;2.73;1.50;;;;;;;;;;4978274;28;20022;-75
2021/07/16 07:30:22;;;;;;;4.35;1.58;;;;;;;;;;4995128;28;20081;-75
2021/07/16 07:32:48;;;;;;;2.50;1.50;;;;;;;;;;4994907;28;20050;-75
2021/07/16 07:35:13;;;;;;;2.60;1.50;;;;;;;;;;5011877;28;20525;-75
2021/07/16 07:37:39;;;;;;;2.93;1.70;;;;;;;;;;4995033;28;20058;-75
2021/07/16 07:40:06;;;;;;;2.57;1.30;;;;;;;;;;4995116;28;20033;-75
2021/07/16 07:42:32;;;;;;;4.30;1.63;;;;;;;;;;4978531;28;20084;-74
2021/07/16 07:44:57;;;;;;;3.15;1.40;;;;;;;;;;4977695;28;20028;-75
2021/07/16 07:47:23;;;;;;;4.07;1.37;;;;;;;;;;4995075;28;20038;-74
2021/07/16 07:49:48;;;;;;;3.40;1.20;;;;;;;;;;4994897;28;20073;-75
2021/07/16 07:52:13;;;;;;;2.77;1.30;;;;;;;;;;4994674;28;20097;-75
2021/07/16 07:54:39;;;;;;;2.37;1.13;;;;;;;;;;4994689;28;20028;-75
2021/07/16 07:57:04;;;;;;;2.20;1.10;;;;;;;;;;4995962;28;20061;-75
2021/07/16 07:59:29;;;;;;;1.33;0.90;;;;;;;;;;4994604;28;20496;-75
2021/07/16 08:01:55;;;;;;;2.57;1.20;;;;;;;;;;4994488;28;20077;-75
2021/07/16 08:04:36;;;;;;;2.87;1.20;;;;;;;;;;4978120;28;20050;-75
2021/07/16 08:07:02;;;;;;;2.78;0.95;;;;;;;;;;4977983;28;20034;-75
2021/07/16 08:09:27;;;;;;;;;;;;;;;;;;4990866;28;20032;-75
2021/07/16 08:11:53;;;;;;;1.88;1.10;;;;;;;;;;5010425;28;19910;-75
2021/07/16 08:14:18;;;;;;;4.67;1.33;;;;;;;;;;5010761;28;20411;-74
2021/07/16 08:16:46;;;;;;;2.33;1.17;;;;;;;;;;4993884;28;20126;-74
2021/07/16 08:19:17;;;;;;;3.85;1.23;;;;;;;;;;5007064;28;20101;-74
2021/07/16 08:21:43;;;;;;;2.75;1.27;;;;;;;;;;4994241;28;20034;-75
2021/07/16 08:24:08;;;;;;;4.45;1.40;;;;;;;;;;4994147;28;20022;-75
2021/07/16 08:26:34;;;;;;;3.17;1.60;;;;;;;;;;5009846;28;20062;-76
2021/07/16 08:28:59;;;;;;;3.20;1.70;;;;;;;;;;4993886;28;20057;-75
2021/07/16 08:31:25;;;;;;;3.07;1.63;;;;;;;;;;5010238;28;20081;-76
2021/07/16 08:33:50;;;;;;;3.03;1.80;;;;;;;;;;4993952;28;20093;-76
2021/07/16 08:36:15;;;;;;;3.57;1.30;;;;;;;;;;4977118;28;20114;-76
2021/07/16 08:38:41;;;;;;;3.37;1.40;;;;;;;;;;4976764;28;20475;-75
2021/07/16 08:41:06;;;;;;;1.80;1.00;;;;;;;;;;4993508;28;20453;-75
2021/07/16 08:43:32;;;;;;;2.23;1.10;;;;;;;;;;4977204;28;20109;-76
2021/07/16 08:45:57;;;;;;;1.70;1.08;;;;;;;;;;4993013;28;20030;-76
2021/07/16 08:48:23;;;;;;;2.50;1.20;;;;;;;;;;4976754;28;20072;-75
2021/07/16 08:50:48;;;;;;;1.70;1.00;;;;;;;;;;4993490;28;20064;-76
2021/07/16 08:53:13;;;;;;;2.73;1.30;;;;;;;;;;4993144;28;20041;-75
2021/07/16 08:55:41;;;;;;;2.37;1.20;;;;;;;;;;4976870;28;20064;-76
2021/07/16 08:58:06;;;;;;;1.75;0.95;;;;;;;;;;4993222;28;20057;-75
2021/07/16 09:00:32;;;;;;;2.07;1.20;;;;;;;;;;4976709;28;20481;-75
2021/07/16 09:02:59;;;;;;;2.13;0.90;;;;;;;;;;4977000;28;20375;-75
2021/07/16 09:05:38;;;;;;;1.55;0.90;;;;;;;;;;4976352;28;20026;-76
2021/07/16 09:08:12;;;;;;;1.50;0.80;;;;;;;;;;4993313;28;20160;-76
2021/07/16 09:10:38;;;;;;;1.88;1.00;;;;;;;;;;4965285;28;20393;-76
2021/07/16 09:13:08;;;;;;;2.72;1.00;;;;;;;;;;4976676;28;20375;-77
2021/07/16 09:15:33;;;;;;;72.50;5.60;;;;;;;;;;4992888;28;20018;-75
2021/07/16 09:18:23;;;;;;;80.87;6.43;;;;;;;;;;4993213;28;20032;-76
2021/07/16 09:21:01;;;;;;;44.13;5.18;;;;;;;;;;5007930;28;20104;-77
2021/07/16 09:23:28;;;;;;;39.10;4.55;;;;;;;;;;4992655;28;20034;-77
2021/07/16 09:26:05;;;;;;;37.85;3.95;;;;;;;;;;4976354;28;20042;-76
2021/07/16 09:28:30;;;;;;;37.42;4.10;;;;;;;;;;4961336;28;20605;-76
2021/07/16 09:31:08;;;;;;;18.70;2.93;;;;;;;;;;4976443;28;20042;-76
2021/07/16 09:34:03;;;;;;;21.83;2.40;;;;;;;;;;4975791;28;20037;-75
2021/07/16 09:36:33;;;;;;;19.10;2.50;;;;;;;;;;4986118;28;20046;-75
2021/07/16 09:39:09;;;;;;;14.52;2.45;;;;;;;;;;4992767;28;20057;-74
2021/07/16 09:41:51;;;;;;;10.27;1.83;;;;;;;;;;4992467;28;20077;-76
2021/07/16 09:44:29;;;;;;;12.35;2.20;;;;;;;;;;5007940;28;20029;-76
2021/07/16 09:47:13;;;;;;;8.52;2.45;;;;;;;;;;4992756;28;20117;-76
2021/07/16 09:49:38;;;;;;;9.55;2.03;;;;;;;;;;4976708;28;20034;-76
2021/07/16 09:52:08;;;;;;;8.93;1.87;;;;;;;;;;4992251;28;20038;-76
2021/07/16 09:54:33;;;;;;;6.82;1.30;;;;;;;;;;4992551;28;20500;-76
2021/07/16 09:56:58;;;;;;;3.53;1.60;;;;;;;;;;4992215;28;20117;-75
2021/07/16 09:59:27;;;;;;;6.50;1.73;;;;;;;;;;4975677;28;20065;-76
2021/07/16 10:01:53;;;;;;;8.35;1.63;;;;;;;;;;4994174;28;20080;-76
2021/07/16 10:04:23;;;;;;;5.73;1.80;;;;;;;;;;4995950;23;20068;-75
2021/07/16 10:06:50;;;;;;;4.45;1.55;;;;;;;;;;5031230;28;20037;-75
2021/07/16 10:09:16;;;;;;;6.25;1.73;;;;;;;;;;4998793;28;20033;-75
2021/07/16 10:11:41;;;;;;;3.80;1.48;;;;;;;;;;5015150;28;20044;-75
2021/07/16 10:14:09;;;;;;;5.00;1.10;;;;;;;;;;5031453;28;20488;-75
2021/07/16 10:16:38;;;;;;;5.25;1.67;;;;;;;;;;5030994;28;20496;-75
2021/07/16 10:19:04;;;;;;;6.80;1.50;;;;;;;;;;5031338;28;20083;-75
2021/07/16 10:21:29;;;;;;;7.90;1.50;;;;;;;;;;5047523;28;20074;-76
2021/07/16 10:23:54;;;;;;;3.40;1.30;;;;;;;;;;5047515;28;20044;-76
2021/07/16 10:26:21;;;;;;;7.23;1.67;;;;;;;;;;5031560;28;20075;-76
2021/07/16 10:28:47;;;;;;;8.80;1.90;;;;;;;;;;5015269;28;20057;-76
2021/07/16 10:31:32;;;;;;;6.00;1.47;;;;;;;;;;5029272;28;20094;-76
2021/07/16 10:34:11;;;;;;;7.88;1.33;;;;;;;;;;5032124;28;20026;-76
2021/07/16 10:36:40;;;;;;;6.25;1.50;;;;;;;;;;5031167;28;20040;-76
2021/07/16 10:39:08;;;;;;;5.63;1.38;;;;;;;;;;5015040;28;20036;-76
2021/07/16 10:41:35;;;;;;;4.18;1.40;;;;;;;;;;5031454;28;20477;-76
2021/07/16 10:44:01;;;;;;;5.28;1.35;;;;;;;;;;5030902;28;20017;-76
2021/07/16 10:46:28;;;;;;;3.03;1.20;;;;;;;;;;5048040;28;20045;-76
2021/07/16 10:48:53;;;;;;;3.47;1.20;;;;;;;;;;5032199;28;20040;-76
2021/07/16 10:51:27;;;;;;;3.67;1.10;;;;;;;;;;5048059;28;20487;-76
2021/07/16 10:53:52;;;;;;;3.97;1.35;;;;;;;;;;5014856;28;20025;-76
2021/07/16 10:56:21;;;;;;;3.23;1.53;;;;;;;;;;5013782;28;20029;-76
2021/07/16 10:58:49;;;;;;;2.85;1.00;;;;;;;;;;5031336;28;20029;-76
2021/07/16 11:01:28;;;;;;;3.13;1.20;;;;;;;;;;5047660;28;20048;-76
2021/07/16 11:03:53;;;;;;;4.72;1.42;;;;;;;;;;5047410;28;20052;-76
2021/07/16 11:06:19;;;;;;;4.27;1.50;;;;;;;;;;5031339;28;20037;-76
2021/07/16 11:08:45;;;;;;;3.13;1.30;;;;;;;;;;5030362;28;20017;-76
2021/07/16 11:11:12;;;;;;;2.80;1.23;;;;;;;;;;5031436;28;20488;-76
2021/07/16 11:13:49;;;;;;;4.05;1.20;;;;;;;;;;5031729;28;20018;-76
2021/07/16 11:16:14;;;;;;;4.57;1.40;;;;;;;;;;5032568;28;20026;-76
2021/07/16 11:18:42;;;;;;;2.53;1.23;;;;;;;;;;5031426;28;20084;-76
2021/07/16 11:21:08;;;;;;;4.05;1.33;;;;;;;;;;5034605;28;20500;-76
2021/07/16 11:23:59;;;;;;;5.30;1.20;;;;;;;;;;5018263;28;20071;-76
2021/07/16 11:26:24;;;;;;;4.85;1.20;;;;;;;;;;5033831;28;20485;-75
2021/07/16 11:28:50;;;;;;;2.70;1.17;;;;;;;;;;5034361;28;20068;-76
2021/07/16 11:31:17;;;;;;;4.27;1.20;;;;;;;;;;5034881;28;20045;-76
2021/07/16 11:33:54;;;;;;;4.20;1.20;;;;;;;;;;5018004;28;20049;-76
2021/07/16 11:36:20;;;;;;;3.67;1.20;;;;;;;;;;5050929;28;20125;-76
2021/07/16 11:38:57;;;;;;;1.63;0.90;;;;;;;;;;5035517;28;20114;-76
2021/07/16 11:41:30;;;;;;;4.10;1.38;;;;;;;;;;5034131;28;20030;-76
2021/07/16 11:43:55;;;;;;;3.40;1.10;;;;;;;;;;5015656;28;20089;-75
2021/07/16 11:46:28;;;;;;;2.28;1.00;;;;;;;;;;5040203;28;20034;-76
2021/07/16 11:48:53;;;;;;;3.22;1.20;;;;;;;;;;5050884;28;20040;-76
2021/07/16 11:51:31;;;;;;;2.30;1.10;;;;;;;;;;5034256;28;20476;-76
2021/07/16 11:54:16;;;;;;;3.05;1.10;;;;;;;;;;4997636;28;20014;-76
2021/07/16 11:56:41;;;;;;;2.10;1.02;;;;;;;;;;5014466;28;20101;-76
2021/07/16 11:59:20;;;;;;;2.50;1.10;;;;;;;;;;5014240;28;20129;-76
2021/07/16 12:02:11;;;;;;;3.08;1.10;;;;;;;;;;5026391;28;20033;-76
2021/07/16 12:04:37;;;;;;;1.95;1.05;;;;;;;;;;5019598;28;20107;-76
2021/07/16 12:07:03;;;;;;;4.13;1.30;;;;;;;;;;5033343;28;20029;-75
2021/07/16 12:09:36;;;;;;;2.70;1.10;;;;;;;;;;5017110;28;20040;-75
2021/07/16 12:12:06;;;;;;;8.30;1.50;;;;;;;;;;5034227;28;20049;-75
2021/07/16 12:14:50;;;;;;;5.88;1.60;;;;;;;;;;5050044;28;20424;-75
2021/07/16 12:17:17;;;;;;;6.75;1.60;;;;;;;;;;5034545;28;20387;-75
2021/07/16 12:19:43;;;;;;;5.82;1.38;;;;;;;;;;5033604;28;20033;-75
2021/07/16 12:22:08;;;;;;;3.87;1.20;;;;;;;;;;5016567;28;20159;-75
2021/07/16 12:24:34;;;;;;;3.67;1.30;;;;;;;;;;5032954;28;20100;-75
2021/07/16 12:27:06;;;;;;;5.47;1.50;;;;;;;;;;5033135;28;20040;-75
2021/07/16 12:29:31;;;;;;;2.03;1.20;;;;;;;;;;5016014;28;20021;-75
2021/07/16 12:31:57;;;;;;;2.57;1.30;;;;;;;;;;5016870;28;20026;-76
2021/07/16 12:34:23;;;;;;;2.17;1.10;;;;;;;;;;5033607;28;20024;-75
2021/07/16 12:36:50;;;;;;;3.15;1.00;;;;;;;;;;5032837;28;20476;-75
2021/07/16 12:39:21;;;;;;;;;;;;;;;;;;5033200;28;20086;-75
2021/07/16 12:41:47;;;;;;;3.60;1.17;;;;;;;;;;5032935;28;20010;-75
2021/07/16 12:44:13;;;;;;;3.30;1.13;;;;;;;;;;5033230;28;20496;-75
2021/07/16 12:46:38;;;;;;;5.70;1.45;;;;;;;;;;5032970;28;20040;-75
2021/07/16 12:49:10;;;;;;;3.97;1.00;;;;;;;;;;5033191;28;20069;-75
2021/07/16 12:51:39;;;;;;;2.80;1.00;;;;;;;;;;5032858;28;20028;-75
2021/07/16 12:54:04;;;;;;;3.10;1.10;;;;;;;;;;5032763;28;20396;-75
2021/07/16 12:56:38;;;;;;;2.73;1.00;;;;;;;;;;5033105;28;20025;-75
2021/07/16 12:59:30;;;;;;;2.42;0.90;;;;;;;;;;5013978;28;20109;-75
2021/07/16 13:01:56;;;;;;;3.50;1.20;;;;;;;;;;5030193;28;20030;-76
2021/07/16 13:04:25;;;;;;;;;;;;;;;;;;5001200;28;20034;-75
2021/07/16 13:06:52;;;;;;;2.20;1.10;;;;;;;;;;5018365;28;20310;-77
2021/07/16 13:09:25;;;;;;;4.40;1.00;;;;;;;;;;5032960;28;20361;-75
2021/07/16 13:11:58;;;;;;;2.80;1.00;;;;;;;;;;5016252;28;20035;-75
2021/07/16 13:14:53;;;;;;;1.88;1.15;;;;;;;;;;5016096;28;20028;-75
2021/07/16 13:17:22;;;;;;;4.30;1.10;;;;;;;;;;5013308;28;20033;-75
2021/07/16 13:19:49;;;;;;;3.50;0.90;;;;;;;;;;5033319;28;20083;-75
2021/07/16 13:22:14;;;;;;;3.05;1.40;;;;;;;;;;5031775;28;20021;-75
2021/07/16 13:24:39;;;;;;;7.67;2.07;;;;;;;;;;5012103;28;20068;-75
2021/07/16 13:27:05;;;;;;;4.00;1.83;;;;;;;;;;5023469;28;20068;-75
2021/07/16 13:29:30;;;;;;;3.80;1.70;;;;;;;;;;5032170;28;20025;-74
2021/07/16 13:31:55;;;;;;;4.03;1.40;;;;;;;;;;5032201;28;20444;-75
2021/07/16 13:34:21;;;;;;;4.20;1.37;;;;;;;;;;5032528;28;20057;-74
2021/07/16 13:36:46;;;;;;;5.33;1.00;;;;;;;;;;5048827;28;20053;-74
2021/07/16 13:39:11;;;;;;;2.30;0.90;;;;;;;;;;5048621;28;20062;-75
2021/07/16 13:41:37;;;;;;;4.47;1.10;;;;;;;;;;5047703;28;20065;-75
2021/07/16 13:44:03;;;;;;;2.20;1.10;;;;;;;;;;5031726;28;20038;-75
2021/07/16 13:46:29;;;;;;;2.73;1.00;;;;;;;;;;5048915;28;20084;-75
2021/07/16 13:48:54;;;;;;;3.50;1.20;;;;;;;;;;5032420;28;20454;-76
2021/07/16 13:51:19;;;;;;;2.40;1.10;;;;;;;;;;5031573;28;20030;-75
2021/07/16 13:53:45;;;;;;;4.07;1.20;;;;;;;;;;5031739;28;20116;-75
2021/07/16 13:56:10;;;;;;;2.87;1.13;;;;;;;;;;5031842;28;20060;-75
2021/07/16 13:58:35;;;;;;;3.57;1.17;;;;;;;;;;5015448;28;20059;-76
2021/07/16 14:01:01;;;;;;;1.50;0.87;;;;;;;;;;5031886;28;20060;-75
2021/07/16 14:03:26;;;;;;;2.43;0.90;;;;;;;;;;5032039;28;20032;-75
2021/07/16 14:05:51;;;;;;;2.67;1.30;;;;;;;;;;5031942;28;20068;-75
2021/07/16 14:08:17;;;;;;;2.20;0.93;;;;;;;;;;5032121;28;20025;-75
2021/07/16 14:10:42;;;;;;;3.40;1.07;;;;;;;;;;5032481;28;20444;-75
2021/07/16 14:13:08;;;;;;;2.83;0.93;;;;;;;;;;5015118;28;20021;-76
2021/07/16 14:15:33;;;;;;;3.17;1.07;;;;;;;;;;5031160;28;20052;-75
2021/07/16 14:17:58;;;;;;;3.27;1.07;;;;;;;;;;5048628;28;20056;-75
2021/07/16 14:20:24;;;;;;;4.07;1.10;;;;;;;;;;5031556;28;20536;-75
2021/07/16 14:22:49;;;;;;;3.00;1.10;;;;;;;;;;5032605;28;20104;-75
2021/07/16 14:25:14;;;;;;;4.13;1.17;;;;;;;;;;5032453;28;20068;-75
2021/07/16 14:27:40;;;;;;;4.00;1.50;;;;;;;;;;5015198;28;20029;-75
2021/07/16 14:30:11;;;;;;;5.80;1.58;;;;;;;;;;5047878;28;20025;-75
2021/07/16 14:32:36;;;;;;;3.95;1.58;;;;;;;;;;5014759;28;20033;-75
2021/07/16 14:35:02;;;;;;;3.13;1.80;;;;;;;;;;5031706;28;20152;-75
2021/07/16 14:37:27;;;;;;;5.53;2.17;;;;;;;;;;5031684;28;20473;-75
2021/07/16 14:39:53;;;;;;;4.23;2.10;;;;;;;;;;5047988;28;20107;-75
2021/07/16 14:42:18;;;;;;;4.40;2.13;;;;;;;;;;5031435;28;20025;-76
2021/07/16 14:44:44;;;;;;;5.13;2.20;;;;;;;;;;5047709;28;20118;-75
2021/07/16 14:47:09;;;;;;;4.63;2.38;;;;;;;;;;5048015;28;20045;-75
2021/07/16 14:49:35;;;;;;;4.67;2.40;;;;;;;;;;5047977;28;20069;-74
2021/07/16 14:52:00;;;;;;;5.67;2.30;;;;;;;;;;5031160;28;20052;-74
2021/07/16 14:54:26;;;;;;;4.40;2.30;;;;;;;;;;5035072;28;20464;-76
2021/07/16 14:56:51;;;;;;;3.70;1.70;;;;;;;;;;5032019;28;20064;-76